Meteo Giornale » Osservazioni meteo Italia » Cagliari-Elmas

ore: 19:20 - Osservazioni Meteo Cagliari-Elmas
Lat. 39° 15' N Lon. 9° 4' E Alt. 4 metri s.l.m.

sereno Europe/Rome

26 °C

Sereno

Temp. 24 Ore

18 °C

30 °C

Sud/Sud-Est

14.8 Km/h

Dew point 22 °C

Umidità 78 %

Visibilità  10 Km

Il sole sorge alle ore 06:37

Il sole tramonta alle ore 20:18

Data e Ora Cielo e Fenomeni T °C DP °C Um. % Pres. hPa Vis. km Vento km/h
Oggi h: 19:20 sereno Sereno 26 22 78 1015 10 S/SE 14.8
Oggi h: 18:50 sereno Sereno 26 21 73 1015 10 S/SE 16.7
Oggi h: 18:20 sereno Sereno 27 21 69 1016 10 SE 18.5
Oggi h: 17:50 sereno Sereno 28 21 65 1016 10 SE 18.5
Oggi h: 17:20 sereno Sereno 28 21 65 1016 10 S/SE 16.7
Oggi h: 16:50 sereno Sereno 28 20 61 1016 10 S/SE 16.7
Oggi h: 16:20 sereno Sereno 28 20 61 1016 10 S/SE 20.3
Oggi h: 15:50 sereno Sereno 29 21 62 1016 10 S/SE 22.2
Oggi h: 15:20 sereno Sereno 28 21 65 1016 10 S/SE 20.3
Oggi h: 14:50 sereno Sereno 29 20 58 1016 10 S/SE 18.5
Oggi h: 14:20 sereno Sereno 29 19 54 1016 10 S/SE 20.3
Oggi h: 13:50 sereno Sereno 29 18 51 1017 10 S/SE 14.8
Oggi h: 12:20 sereno Sereno 30 8 25 1017 10 S 9.3
Oggi h: 11:50 sereno Sereno 30 9 27 1017 10 O/SO 9.3
Oggi h: 11:20 sereno Sereno 30 9 27 1017 10 N 9.3
Oggi h: 10:50 sereno Sereno 28 9 30 1017 10 N/NO 13
Oggi h: 10:20 sereno Sereno 27 13 42 1017 10 N/NO 16.7
Oggi h: 09:20 sereno Sereno 22 16 68 1017 10 NO 16.7
Oggi h: 08:50 sereno Sereno 21 16 73 1017 10 NO 11.1
Oggi h: 08:20 sereno Sereno 20 16 77 1017 10 NO 11.1
Oggi h: 07:50 sereno Sereno 19 16 82 1016 10 N/NO 11.1
Oggi h: 07:20 sereno Sereno 18 16 88 1016 10 NO 13
Oggi h: 06:50 sereno Sereno 18 16 88 1016 10 NO 11.1
Oggi h: 06:20 sereno Sereno 18 17 93 1016 10 NO 11.1
Oggi h: 05:50 sereno Sereno 19 17 88 1016 10 NO 13
Oggi h: 05:20 sereno Sereno 19 17 88 1016 10 NO 13
Oggi h: 04:50 sereno Sereno 19 17 88 1016 10 NO 11.1
Oggi h: 04:20 sereno Sereno 19 17 88 1016 10 NO 9.3
Oggi h: 03:20 sereno Sereno 20 17 82 1017 10 NO 11.1
Oggi h: 02:50 sereno Sereno 20 17 82 1017 10 N 14.8
Oggi h: 02:20 sereno Sereno 21 17 77 1017 10 N 16.7
Oggi h: 01:50 sereno Sereno 22 17 73 1017 10 N 18.5
Oggi h: 00:50 sereno Sereno 22 17 73 1017 10 N 18.5
Oggi h: 00:20 sereno Sereno 22 17 73 1017 10 N 18.5
Ieri h: 23:50 sereno Sereno 22 17 73 1017 10 N/NO 16.7
Ieri h: 23:20 sereno Sereno 23 17 68 1017 10 N 16.7
Ieri h: 22:50 sereno Sereno 23 17 68 1017 10 N/NO 14.8
Ieri h: 22:20 sereno Sereno 23 17 68 1017 10 N/NO 18.5
Ieri h: 21:50 sereno Sereno 24 17 64 1017 10 N 18.5
Ieri h: 21:20 sereno Sereno 24 17 64 1016 10 N/NO 18.5
Ieri h: 20:50 sereno Sereno 25 17 61 1016 10 N/NO 22.2
Ieri h: 20:20 sereno Sereno 26 16 54 1015 10 N/NO 25.9
Ieri h: 19:50 sereno Sereno 27 15 47 1015 10 N/NO 29.6